createdAt,value
2018-12-03T00:00:26.008Z,12.60
2018-12-03T00:02:58.408Z,12.60
2018-12-03T00:05:28.838Z,12.60
2018-12-03T00:07:57.706Z,12.60
2018-12-03T00:10:26.278Z,12.60
2018-12-03T00:12:54.673Z,12.50
2018-12-03T00:15:22.976Z,12.60
2018-12-03T00:17:51.242Z,12.60
2018-12-03T00:20:19.474Z,12.50
2018-12-03T00:22:47.779Z,12.50
2018-12-03T00:25:16.077Z,12.40
2018-12-03T00:27:51.040Z,12.30
2018-12-03T00:30:19.575Z,12.30
2018-12-03T00:32:48.008Z,12.30
2018-12-03T00:35:16.344Z,12.30
2018-12-03T00:37:45.333Z,12.30
2018-12-03T00:40:13.745Z,12.30
2018-12-03T00:42:42.031Z,12.30
2018-12-03T00:45:10.330Z,12.30
2018-12-03T00:47:38.671Z,12.30
2018-12-03T00:50:07.133Z,12.30
2018-12-03T00:52:35.428Z,12.30
2018-12-03T00:55:04.221Z,12.30
2018-12-03T00:57:32.458Z,12.30
2018-12-03T01:00:00.795Z,12.30
2018-12-03T01:02:29.175Z,12.20
2018-12-03T01:04:57.438Z,12.30
2018-12-03T01:07:25.700Z,12.30
2018-12-03T01:09:53.970Z,12.30
2018-12-03T01:12:22.181Z,12.30
2018-12-03T01:14:50.500Z,12.30
2018-12-03T01:17:19.711Z,12.30
2018-12-03T01:19:47.913Z,12.30
2018-12-03T01:22:16.137Z,12.30
2018-12-03T01:24:44.451Z,12.40
2018-12-03T01:27:12.632Z,12.30
2018-12-03T01:29:40.899Z,12.30
2018-12-03T01:32:09.169Z,12.30
2018-12-03T01:34:37.381Z,12.30
2018-12-03T01:37:05.669Z,12.30
2018-12-03T01:39:34.475Z,12.40
2018-12-03T01:42:03.581Z,12.40
2018-12-03T01:44:31.797Z,12.40
2018-12-03T01:47:00.254Z,12.30
2018-12-03T01:49:28.441Z,12.40
2018-12-03T01:51:56.699Z,12.40
2018-12-03T01:54:24.898Z,12.40
2018-12-03T01:56:53.120Z,12.40
2018-12-03T01:59:21.346Z,12.40
2018-12-03T02:01:49.654Z,12.40
2018-12-03T02:04:17.919Z,12.40
2018-12-03T02:06:46.122Z,12.40
2018-12-03T02:09:15.431Z,12.40
2018-12-03T02:11:43.669Z,12.40
2018-12-03T02:14:11.921Z,12.40
2018-12-03T02:16:40.126Z,12.50
2018-12-03T02:19:08.289Z,12.40
2018-12-03T02:21:36.676Z,12.40
2018-12-03T02:24:05.392Z,12.40
2018-12-03T02:26:33.587Z,12.30
2018-12-03T02:29:01.800Z,12.30
2018-12-03T02:31:30.060Z,12.30
2018-12-03T02:33:58.630Z,12.30
2018-12-03T02:36:27.221Z,12.30
2018-12-03T02:38:56.344Z,12.40
2018-12-03T02:41:24.569Z,12.30
2018-12-03T02:43:52.813Z,12.40
2018-12-03T02:46:21.150Z,12.40
2018-12-03T02:48:50.571Z,12.40
2018-12-03T02:51:18.923Z,12.50
2018-12-03T02:53:47.122Z,12.50
2018-12-03T02:56:15.995Z,12.50
2018-12-03T02:58:44.208Z,12.40
2018-12-03T03:01:12.457Z,12.40
2018-12-03T03:03:40.654Z,12.40
2018-12-03T03:06:08.881Z,12.40
2018-12-03T03:08:37.471Z,12.40
2018-12-03T03:11:05.719Z,12.40
2018-12-03T03:13:33.884Z,12.50
2018-12-03T03:16:02.132Z,12.50
2018-12-03T03:18:30.334Z,12.50
2018-12-03T03:20:58.683Z,12.50
2018-12-03T03:23:26.963Z,12.50
2018-12-03T03:25:59.624Z,12.50
2018-12-03T03:28:27.898Z,12.60
2018-12-03T03:30:56.509Z,12.60
2018-12-03T03:33:24.925Z,12.70
2018-12-03T03:35:53.143Z,12.70
2018-12-03T03:38:21.710Z,12.70
2018-12-03T03:40:50.076Z,12.70
2018-12-03T03:43:18.496Z,12.70
2018-12-03T03:45:46.877Z,12.80
2018-12-03T03:48:15.341Z,12.80
2018-12-03T03:50:43.891Z,12.90
2018-12-03T03:53:12.365Z,12.90
2018-12-03T03:55:40.883Z,12.90
2018-12-03T03:58:09.191Z,12.90
2018-12-03T04:00:37.544Z,13.00
2018-12-03T04:03:06.100Z,13.00
2018-12-03T04:05:34.486Z,13.00
2018-12-03T04:08:02.898Z,13.00
2018-12-03T04:10:31.234Z,13.00
2018-12-03T04:12:59.730Z,13.00
2018-12-03T04:15:28.079Z,13.00
2018-12-03T04:17:58.194Z,13.00
2018-12-03T04:20:26.548Z,13.00
2018-12-03T04:22:55.420Z,12.90
2018-12-03T04:25:23.891Z,12.80
2018-12-03T04:27:52.249Z,12.80
2018-12-03T04:30:21.753Z,12.80
2018-12-03T04:32:50.948Z,12.80
2018-12-03T04:35:19.315Z,12.90
2018-12-03T04:37:47.758Z,12.80
2018-12-03T04:40:17.054Z,12.90
2018-12-03T04:42:45.472Z,12.80
2018-12-03T04:45:16.003Z,12.90
2018-12-03T04:47:44.380Z,12.90
2018-12-03T04:50:14.840Z,12.90
2018-12-03T04:52:43.288Z,12.90
2018-12-03T04:55:13.083Z,13.00
2018-12-03T04:57:41.521Z,13.00
2018-12-03T05:00:15.390Z,13.00
2018-12-03T05:02:44.532Z,13.10
2018-12-03T05:05:13.881Z,13.10
2018-12-03T05:07:42.174Z,13.20
2018-12-03T05:10:13.700Z,13.20
2018-12-03T05:12:42.452Z,13.20
2018-12-03T05:15:12.163Z,13.30
2018-12-03T05:17:40.579Z,13.30
2018-12-03T05:20:11.176Z,13.30
2018-12-03T05:22:39.566Z,13.30
2018-12-03T05:25:09.320Z,13.30
2018-12-03T05:27:37.949Z,13.30
2018-12-03T05:30:09.349Z,13.30
2018-12-03T05:32:37.645Z,13.30
2018-12-03T05:35:10.914Z,13.30
2018-12-03T05:37:39.169Z,13.30
2018-12-03T05:40:11.402Z,13.30
2018-12-03T05:42:41.364Z,13.30
2018-12-03T05:45:10.197Z,13.20
2018-12-03T05:47:38.517Z,13.30
2018-12-03T05:50:12.109Z,13.30
2018-12-03T05:52:40.532Z,13.30
2018-12-03T05:55:10.155Z,13.30
2018-12-03T05:57:38.355Z,13.30
2018-12-03T06:00:09.693Z,13.30
2018-12-03T06:02:38.010Z,13.30
2018-12-03T06:05:07.537Z,13.30
2018-12-03T06:07:36.184Z,13.30
2018-12-03T06:10:06.476Z,13.20
2018-12-03T06:12:34.694Z,13.30
2018-12-03T06:15:02.948Z,13.30
2018-12-03T06:17:31.415Z,13.30
2018-12-03T06:19:59.686Z,13.30
2018-12-03T06:22:27.954Z,13.30
2018-12-03T06:24:56.258Z,13.30
2018-12-03T06:27:24.460Z,13.20
2018-12-03T06:29:52.670Z,13.10
2018-12-03T06:32:20.898Z,13.10
2018-12-03T06:34:49.116Z,13.10
2018-12-03T06:37:17.414Z,13.10
2018-12-03T06:39:45.616Z,13.10
2018-12-03T06:42:13.955Z,13.00
2018-12-03T06:44:42.556Z,13.00
2018-12-03T06:47:11.525Z,13.00
2018-12-03T06:49:40.383Z,12.90
2018-12-03T06:52:08.096Z,12.90
2018-12-03T06:54:37.274Z,12.90
2018-12-03T06:57:05.874Z,12.90
2018-12-03T06:59:34.276Z,12.90
2018-12-03T07:02:02.609Z,12.90
2018-12-03T07:04:30.983Z,12.90
2018-12-03T07:06:59.191Z,12.90
2018-12-03T07:09:27.585Z,12.90
2018-12-03T07:11:55.767Z,12.90
2018-12-03T07:14:24.088Z,12.90
2018-12-03T07:16:52.299Z,12.80
2018-12-03T07:19:20.736Z,12.90
2018-12-03T07:21:49.474Z,12.90
2018-12-03T07:24:17.725Z,12.90
2018-12-03T07:26:45.953Z,12.90
2018-12-03T07:29:14.287Z,12.80
2018-12-03T07:31:43.001Z,12.90
2018-12-03T07:34:11.283Z,12.80
2018-12-03T07:36:39.600Z,12.80
2018-12-03T07:39:08.063Z,12.90
2018-12-03T07:41:36.280Z,12.90
2018-12-03T07:44:05.181Z,12.90
2018-12-03T07:46:33.462Z,12.90
2018-12-03T07:49:01.693Z,13.00
2018-12-03T07:51:29.975Z,13.00
2018-12-03T07:53:58.251Z,13.00
2018-12-03T07:56:27.116Z,12.90
2018-12-03T07:58:55.392Z,12.90
2018-12-03T08:01:23.860Z,13.00
2018-12-03T08:03:52.435Z,12.90
2018-12-03T08:06:21.121Z,12.90
2018-12-03T08:08:50.909Z,12.90
2018-12-03T08:11:19.341Z,12.90
2018-12-03T08:13:47.621Z,12.90
2018-12-03T08:16:15.840Z,12.90
2018-12-03T08:18:44.088Z,12.90
2018-12-03T08:21:12.342Z,12.90
2018-12-03T08:23:50.055Z,12.90
2018-12-03T08:26:18.670Z,13.00
2018-12-03T08:28:46.933Z,13.00
2018-12-03T08:31:15.333Z,13.00
2018-12-03T08:33:43.631Z,13.10
2018-12-03T08:36:11.845Z,13.10
2018-12-03T08:38:40.717Z,13.20
2018-12-03T08:41:08.957Z,13.20
2018-12-03T08:43:37.649Z,13.30
2018-12-03T08:46:07.852Z,13.30
2018-12-03T08:48:38.535Z,13.20
2018-12-03T08:51:07.479Z,13.30
2018-12-03T08:53:35.701Z,13.40
2018-12-03T08:56:04.103Z,13.40
2018-12-03T08:58:32.273Z,13.50
2018-12-03T09:01:06.813Z,13.50
2018-12-03T09:03:35.382Z,13.60
2018-12-03T09:06:11.095Z,13.60
2018-12-03T09:08:39.516Z,13.70
2018-12-03T09:11:10.789Z,13.70
2018-12-03T09:13:39.128Z,13.80
2018-12-03T09:16:07.357Z,13.80
2018-12-03T09:18:39.101Z,13.80
2018-12-03T09:21:12.437Z,13.80
2018-12-03T09:23:41.966Z,13.80
2018-12-03T09:26:10.809Z,13.90
2018-12-03T09:28:39.076Z,13.90
2018-12-03T09:31:07.348Z,13.80
2018-12-03T09:33:35.538Z,13.90
2018-12-03T09:36:03.795Z,13.90
2018-12-03T09:38:40.541Z,13.90
2018-12-03T09:41:08.850Z,13.90
2018-12-03T09:43:37.861Z,13.80
2018-12-03T09:46:06.072Z,13.80
2018-12-03T09:48:34.331Z,13.80
2018-12-03T09:51:02.576Z,13.80
2018-12-03T09:53:31.049Z,13.80
2018-12-03T09:55:59.275Z,13.70
2018-12-03T09:58:27.685Z,13.60
2018-12-03T10:00:55.926Z,13.60
2018-12-03T10:03:28.428Z,13.70
2018-12-03T10:05:58.588Z,13.70
2018-12-03T10:08:31.132Z,13.70
2018-12-03T10:11:01.757Z,13.70
2018-12-03T10:13:30.781Z,13.80
2018-12-03T10:15:59.084Z,13.80
2018-12-03T10:18:27.265Z,13.80
2018-12-03T10:20:57.853Z,13.80
2018-12-03T10:23:26.840Z,13.80
2018-12-03T10:25:58.148Z,13.80
2018-12-03T10:28:27.520Z,13.90
2018-12-03T10:30:57.492Z,13.90
2018-12-03T10:33:30.161Z,13.90
2018-12-03T10:35:59.951Z,13.80
2018-12-03T10:38:32.534Z,13.80
2018-12-03T10:41:03.532Z,13.80
2018-12-03T10:43:32.034Z,13.80
2018-12-03T10:46:00.280Z,13.80
2018-12-03T10:48:28.516Z,13.90
2018-12-03T10:50:56.719Z,13.90
2018-12-03T10:53:29.072Z,13.80
2018-12-03T10:55:57.801Z,13.80
2018-12-03T10:58:26.070Z,13.80
2018-12-03T11:01:03.588Z,13.70
2018-12-03T11:03:37.336Z,13.60
2018-12-03T11:06:11.485Z,13.60
2018-12-03T11:08:40.000Z,13.50
2018-12-03T11:11:08.196Z,13.40
2018-12-03T11:13:36.455Z,13.40
2018-12-03T11:16:05.448Z,13.40
2018-12-03T11:18:43.170Z,13.40
2018-12-03T11:21:11.463Z,13.30
2018-12-03T11:23:41.051Z,13.20
2018-12-03T11:26:09.601Z,13.10
2018-12-03T11:28:40.056Z,13.00
2018-12-03T11:31:10.392Z,13.00
2018-12-03T11:33:38.610Z,12.90
2018-12-03T11:36:07.126Z,12.90
2018-12-03T11:38:44.524Z,12.80
2018-12-03T11:41:12.770Z,12.80
2018-12-03T11:43:41.658Z,12.70
2018-12-03T11:46:09.860Z,12.70
2018-12-03T11:48:38.276Z,12.60
2018-12-03T11:51:06.501Z,12.60
2018-12-03T11:53:34.739Z,12.50
2018-12-03T11:56:03.006Z,12.50
2018-12-03T11:58:31.219Z,12.50
2018-12-03T12:00:59.671Z,12.50
2018-12-03T12:03:27.851Z,12.50
2018-12-03T12:05:56.117Z,12.50
2018-12-03T12:08:24.393Z,12.50
2018-12-03T12:10:52.646Z,12.50
2018-12-03T12:13:20.857Z,12.40
2018-12-03T12:15:49.100Z,12.50
2018-12-03T12:18:17.366Z,12.50
2018-12-03T12:20:46.040Z,12.50
2018-12-03T12:23:14.470Z,12.50
2018-12-03T12:25:42.789Z,12.40
2018-12-03T12:28:11.252Z,12.40
2018-12-03T12:30:39.570Z,12.30
2018-12-03T12:33:07.822Z,12.30
2018-12-03T12:35:36.054Z,12.30
2018-12-03T12:38:04.334Z,12.30
2018-12-03T12:40:32.548Z,12.20
2018-12-03T12:43:00.768Z,12.20
2018-12-03T12:45:35.841Z,12.20
2018-12-03T12:48:04.104Z,12.10
2018-12-03T12:50:32.347Z,12.10
2018-12-03T12:53:00.551Z,12.10
2018-12-03T12:55:28.758Z,12.10
2018-12-03T12:57:56.954Z,12.10
2018-12-03T13:00:25.341Z,12.10
2018-12-03T13:02:54.055Z,12.10
2018-12-03T13:05:22.352Z,12.10
2018-12-03T13:07:50.754Z,12.10
2018-12-03T13:10:19.160Z,12.20
2018-12-03T13:12:51.016Z,12.20
2018-12-03T13:15:19.406Z,12.30
2018-12-03T13:17:48.216Z,12.30
2018-12-03T13:20:17.682Z,12.30
2018-12-03T13:22:46.126Z,12.30
2018-12-03T13:25:17.962Z,12.30
2018-12-03T13:27:46.595Z,12.30
2018-12-03T13:30:16.146Z,12.30
2018-12-03T13:32:44.804Z,12.20
2018-12-03T13:35:13.688Z,12.20
2018-12-03T13:37:41.941Z,12.20
2018-12-03T13:40:15.505Z,12.20
2018-12-03T13:42:44.869Z,12.20
2018-12-03T13:45:18.985Z,12.20
2018-12-03T13:47:48.520Z,12.20
2018-12-03T13:50:17.329Z,12.20
2018-12-03T13:52:45.896Z,12.30
2018-12-03T13:55:18.445Z,12.30
2018-12-03T13:57:46.717Z,12.30
2018-12-03T14:00:23.204Z,12.30
2018-12-03T14:02:59.476Z,12.30
2018-12-03T14:05:29.087Z,12.30
2018-12-03T14:08:08.665Z,12.30
2018-12-03T14:10:55.784Z,12.30
2018-12-03T14:13:50.130Z,12.30
2018-12-03T14:16:42.596Z,12.30
2018-12-03T14:19:11.338Z,12.30
2018-12-03T14:21:50.386Z,12.30
2018-12-03T14:24:19.712Z,12.40
2018-12-03T14:26:48.068Z,12.30
2018-12-03T14:29:17.177Z,12.30
2018-12-03T14:31:45.463Z,12.40
2018-12-03T14:34:20.241Z,12.40
2018-12-03T14:36:48.539Z,12.40
2018-12-03T14:39:17.360Z,12.40
2018-12-03T14:41:45.605Z,12.40
2018-12-03T14:44:13.853Z,12.40
2018-12-03T14:46:42.110Z,12.40
2018-12-03T14:49:10.365Z,12.40
2018-12-03T14:51:38.736Z,12.40
2018-12-03T14:54:06.984Z,12.40
2018-12-03T14:56:35.221Z,12.40
2018-12-03T14:59:03.513Z,12.40
2018-12-03T15:01:31.758Z,12.50
2018-12-03T15:04:00.034Z,12.50
2018-12-03T15:06:28.286Z,12.50
2018-12-03T15:08:56.501Z,12.40
2018-12-03T15:11:24.819Z,12.30
2018-12-03T15:13:53.078Z,12.20
2018-12-03T15:16:21.877Z,12.20
2018-12-03T15:18:50.114Z,12.10
2018-12-03T15:21:18.338Z,12.10
2018-12-03T15:23:46.621Z,12.10
2018-12-03T15:26:14.895Z,12.00
2018-12-03T15:28:43.204Z,12.00
2018-12-03T15:31:11.450Z,12.00
2018-12-03T15:33:39.776Z,12.00
2018-12-03T15:36:08.234Z,12.00
2018-12-03T15:38:36.470Z,12.10
2018-12-03T15:41:04.912Z,12.10
2018-12-03T15:43:33.517Z,12.10
2018-12-03T15:46:01.918Z,12.10
2018-12-03T15:48:30.949Z,12.10
2018-12-03T15:50:59.262Z,12.10
2018-12-03T15:53:27.656Z,12.10
2018-12-03T15:55:55.940Z,12.10
2018-12-03T15:58:24.211Z,12.10
2018-12-03T16:00:52.698Z,12.10
2018-12-03T16:03:21.146Z,12.10
2018-12-03T16:05:49.407Z,12.10
2018-12-03T16:08:17.619Z,12.10
2018-12-03T16:10:46.183Z,12.10
2018-12-03T16:13:14.760Z,12.10
2018-12-03T16:15:43.100Z,12.10
2018-12-03T16:18:11.648Z,12.10
2018-12-03T16:20:40.151Z,12.00
2018-12-03T16:23:08.412Z,12.00
2018-12-03T16:25:36.927Z,12.00
2018-12-03T16:28:05.260Z,12.00
2018-12-03T16:30:33.743Z,12.10
2018-12-03T16:33:01.942Z,12.00
2018-12-03T16:35:31.073Z,12.00
2018-12-03T16:37:59.284Z,12.00
2018-12-03T16:40:28.316Z,12.00
2018-12-03T16:42:56.540Z,11.90
2018-12-03T16:45:24.813Z,12.00
2018-12-03T16:47:53.106Z,12.00
2018-12-03T16:50:21.917Z,12.00
2018-12-03T16:52:49.673Z,11.90
2018-12-03T16:55:17.856Z,12.00
2018-12-03T16:57:46.064Z,12.00
2018-12-03T17:00:14.761Z,12.00
2018-12-03T17:02:43.068Z,12.00
2018-12-03T17:05:11.545Z,12.10
2018-12-03T17:07:39.826Z,12.10
2018-12-03T17:10:14.114Z,12.10
2018-12-03T17:12:42.577Z,12.20
2018-12-03T17:15:11.057Z,12.20
2018-12-03T17:17:39.380Z,12.20
2018-12-03T17:20:13.368Z,12.20
2018-12-03T17:23:02.801Z,12.30
2018-12-03T17:25:31.161Z,12.30
2018-12-03T17:27:59.859Z,12.30
2018-12-03T17:30:28.139Z,12.30
2018-12-03T17:32:56.589Z,12.30
2018-12-03T17:36:04.347Z,12.30
2018-12-03T17:38:33.054Z,12.30
2018-12-03T17:41:00.528Z,12.30
2018-12-03T17:43:28.011Z,12.40
2018-12-03T17:45:55.535Z,12.40
2018-12-03T17:48:23.122Z,12.40
2018-12-03T17:50:50.556Z,12.40
2018-12-03T17:53:17.998Z,12.30
2018-12-03T17:55:45.449Z,12.30
2018-12-03T17:58:12.901Z,12.30
2018-12-03T18:00:40.325Z,12.30
2018-12-03T18:03:07.785Z,12.40
2018-12-03T18:05:35.420Z,12.30
2018-12-03T18:08:02.895Z,12.30
2018-12-03T18:10:30.625Z,12.30
2018-12-03T18:12:58.158Z,12.30
2018-12-03T18:15:25.876Z,12.30
2018-12-03T18:17:53.335Z,12.30
2018-12-03T18:20:20.829Z,12.30
2018-12-03T18:22:48.271Z,12.30
2018-12-03T18:25:15.733Z,12.30
2018-12-03T18:27:43.168Z,12.30
2018-12-03T18:30:10.622Z,12.30
2018-12-03T18:32:38.104Z,12.20
2018-12-03T18:35:05.618Z,12.30
2018-12-03T18:37:33.124Z,12.30
2018-12-03T18:40:00.578Z,12.20
2018-12-03T18:42:28.024Z,12.20
2018-12-03T18:44:55.494Z,12.20
2018-12-03T18:47:23.033Z,12.20
2018-12-03T18:49:50.582Z,12.20
2018-12-03T18:52:18.037Z,12.20
2018-12-03T18:54:45.503Z,12.20
2018-12-03T18:57:13.636Z,12.20
2018-12-03T18:59:41.162Z,12.20
2018-12-03T19:02:08.623Z,12.10
2018-12-03T19:04:37.151Z,12.10
2018-12-03T19:07:04.737Z,12.10
2018-12-03T19:09:32.189Z,12.00
2018-12-03T19:11:59.626Z,12.00
2018-12-03T19:14:27.089Z,12.00
2018-12-03T19:16:54.552Z,12.00
2018-12-03T19:19:22.034Z,11.90
2018-12-03T19:21:49.466Z,11.90
2018-12-03T19:24:16.916Z,11.80
2018-12-03T19:26:44.373Z,11.80
2018-12-03T19:29:12.208Z,11.80
2018-12-03T19:31:39.670Z,11.80
2018-12-03T19:34:07.148Z,11.80
2018-12-03T19:36:34.630Z,11.80
2018-12-03T19:39:02.144Z,11.70
2018-12-03T19:41:29.633Z,11.70
2018-12-03T19:43:57.089Z,11.70
2018-12-03T19:46:24.611Z,11.60
2018-12-03T19:48:52.127Z,11.60
2018-12-03T19:51:19.567Z,11.70
2018-12-03T19:53:48.652Z,11.70
2018-12-03T19:56:16.134Z,11.70
2018-12-03T19:58:43.664Z,11.70
2018-12-03T20:01:11.138Z,11.70
2018-12-03T20:03:38.592Z,11.80
2018-12-03T20:06:06.048Z,11.70
2018-12-03T20:08:33.552Z,11.70
2018-12-03T20:11:01.121Z,11.70
2018-12-03T20:13:28.588Z,11.80
2018-12-03T20:15:56.114Z,11.80
2018-12-03T20:18:23.603Z,11.80
2018-12-03T20:20:51.711Z,11.80
2018-12-03T20:23:19.308Z,11.80
2018-12-03T20:25:46.779Z,11.80
2018-12-03T20:28:14.251Z,11.80
2018-12-03T20:30:42.963Z,11.80
2018-12-03T20:33:10.623Z,11.80
2018-12-03T20:35:38.639Z,11.80
2018-12-03T20:38:06.428Z,11.80
2018-12-03T20:40:34.016Z,11.80
2018-12-03T20:43:01.530Z,11.90
2018-12-03T20:45:33.006Z,11.90
2018-12-03T20:48:00.568Z,11.90
2018-12-03T20:50:28.087Z,11.80
2018-12-03T20:52:55.556Z,11.80
2018-12-03T20:55:23.146Z,11.80
2018-12-03T20:57:50.669Z,11.80
2018-12-03T21:00:18.133Z,11.90
2018-12-03T21:02:45.737Z,11.90
2018-12-03T21:05:13.258Z,11.90
2018-12-03T21:07:40.923Z,11.90
2018-12-03T21:10:08.471Z,11.90
2018-12-03T21:12:36.108Z,11.90
2018-12-03T21:15:03.945Z,12.00
2018-12-03T21:17:32.225Z,12.00
2018-12-03T21:20:00.747Z,12.00
2018-12-03T21:22:28.229Z,12.00
2018-12-03T21:24:55.775Z,12.00
2018-12-03T21:27:23.344Z,12.00
2018-12-03T21:29:50.817Z,11.90
2018-12-03T21:32:18.291Z,11.80
2018-12-03T21:34:45.805Z,11.80
2018-12-03T21:37:13.355Z,11.80
2018-12-03T21:39:40.880Z,11.70
2018-12-03T21:42:08.427Z,11.70
2018-12-03T21:44:35.957Z,11.70
2018-12-03T21:47:03.575Z,11.70
2018-12-03T21:49:31.034Z,11.70
2018-12-03T21:51:58.591Z,11.70
2018-12-03T21:54:26.090Z,11.80
2018-12-03T21:56:53.628Z,11.80
2018-12-03T21:59:21.090Z,11.80
2018-12-03T22:01:49.516Z,11.80
2018-12-03T22:04:17.003Z,11.80
2018-12-03T22:06:44.553Z,11.80
2018-12-03T22:09:12.026Z,11.80
2018-12-03T22:11:39.547Z,11.90
2018-12-03T22:14:07.021Z,11.90
2018-12-03T22:16:34.506Z,11.90
2018-12-03T22:19:01.965Z,11.90
2018-12-03T22:21:29.473Z,11.90
2018-12-03T22:23:56.992Z,11.90
2018-12-03T22:26:24.539Z,11.90
2018-12-03T22:28:52.090Z,11.90
2018-12-03T22:31:19.537Z,11.90
2018-12-03T22:33:47.028Z,11.80
2018-12-03T22:36:14.606Z,11.90
2018-12-03T22:38:42.462Z,11.80
2018-12-03T22:41:09.920Z,11.80
2018-12-03T22:43:37.721Z,11.80
2018-12-03T22:46:05.193Z,11.70
2018-12-03T22:48:32.641Z,11.70
2018-12-03T22:51:00.110Z,11.70
2018-12-03T22:53:27.572Z,11.80
2018-12-03T22:55:55.085Z,11.80
2018-12-03T22:58:22.552Z,11.80
2018-12-03T23:00:56.551Z,11.80
2018-12-03T23:03:24.664Z,11.80
2018-12-03T23:05:52.372Z,11.80
2018-12-03T23:08:19.842Z,11.70
2018-12-03T23:10:47.267Z,11.70
2018-12-03T23:13:14.809Z,11.60
2018-12-03T23:15:42.263Z,11.60
2018-12-03T23:18:09.737Z,11.60
2018-12-03T23:20:37.168Z,11.60
2018-12-03T23:23:04.613Z,11.60
2018-12-03T23:25:32.079Z,11.60
2018-12-03T23:27:59.566Z,11.60
2018-12-03T23:30:27.676Z,11.50
2018-12-03T23:32:56.168Z,11.50
2018-12-03T23:35:23.661Z,11.50
2018-12-03T23:37:51.103Z,11.40
2018-12-03T23:40:18.567Z,11.40
2018-12-03T23:42:46.034Z,11.40
2018-12-03T23:45:13.812Z,11.40
2018-12-03T23:47:41.416Z,11.40
2018-12-03T23:50:08.879Z,11.40
2018-12-03T23:52:36.471Z,11.40
2018-12-03T23:55:04.257Z,11.40
2018-12-03T23:57:31.817Z,11.40
2018-12-03T23:59:59.383Z,11.40
